createdAt,value
2019-04-22T00:01:56.953Z,101360.57
2019-04-22T00:07:22.965Z,101364.86
2019-04-22T00:12:34.837Z,101360.23
2019-04-22T00:17:48.248Z,101361.00
2019-04-22T00:22:38.047Z,101353.00
2019-04-22T00:27:47.904Z,101350.99
2019-04-22T00:33:03.361Z,101351.45
2019-04-22T00:38:11.104Z,101339.13
2019-04-22T00:43:16.506Z,101341.98
2019-04-22T00:48:37.985Z,101341.60
2019-04-22T00:53:34.212Z,101336.82
2019-04-22T00:58:36.528Z,101337.47
2019-04-22T01:03:44.201Z,101342.26
2019-04-22T01:08:54.581Z,101338.37
2019-04-22T01:13:52.159Z,101340.30
2019-04-22T01:18:55.151Z,101337.48
2019-04-22T01:23:57.542Z,101336.36
2019-04-22T01:29:00.926Z,101330.99
2019-04-22T01:34:05.550Z,101320.70
2019-04-22T01:39:25.100Z,101318.15
2019-04-22T01:44:33.273Z,101321.28
2019-04-22T01:59:41.759Z,101313.05
2019-04-22T02:04:59.429Z,101312.81
2019-04-22T02:10:07.324Z,101301.98
2019-04-22T02:15:06.607Z,101298.34
2019-04-22T02:20:13.648Z,101289.98
2019-04-22T02:25:24.573Z,101296.54
2019-04-22T02:30:36.393Z,101297.88
2019-04-22T02:35:52.104Z,101294.58
2019-04-22T02:40:58.698Z,101292.91
2019-04-22T02:51:02.190Z,101293.39
2019-04-22T02:56:12.929Z,101288.75
2019-04-22T03:01:14.328Z,101285.81
2019-04-22T03:06:29.641Z,101276.87
2019-04-22T03:16:33.312Z,101284.48
2019-04-22T03:21:31.204Z,101287.19
2019-04-22T03:26:40.934Z,101280.63
2019-04-22T03:52:18.666Z,101268.72
2019-04-22T03:57:48.930Z,101259.73
2019-04-22T04:02:45.739Z,101260.01
2019-04-22T04:12:53.363Z,101253.14
2019-04-22T04:28:24.554Z,101246.98
2019-04-22T04:33:05.180Z,101251.38
2019-04-22T04:38:05.118Z,101248.59
2019-04-22T04:43:17.993Z,101263.11
2019-04-22T04:48:36.983Z,101259.59
2019-04-22T04:53:52.770Z,101270.93
2019-04-22T04:58:47.767Z,101268.53
2019-04-22T05:03:48.864Z,101268.80
2019-04-22T05:29:13.874Z,101272.38
2019-04-22T05:34:19.462Z,101279.56
2019-04-22T05:39:15.735Z,101280.47
2019-04-22T05:44:26.627Z,101281.42
2019-04-22T05:49:28.961Z,101288.03
2019-04-22T05:54:34.797Z,101293.64
2019-04-22T05:59:45.945Z,101298.77
2019-04-22T06:04:55.460Z,101306.12
2019-04-22T06:09:57.761Z,101309.08
2019-04-22T06:14:58.708Z,101311.55
2019-04-22T06:20:03.038Z,101312.38
2019-04-22T06:25:20.607Z,101309.34
2019-04-22T06:30:21.801Z,101309.30
2019-04-22T06:40:41.733Z,101299.20
2019-04-22T06:45:39.718Z,101303.73
2019-04-22T06:50:49.783Z,101300.33
2019-04-22T06:55:51.675Z,101297.70
2019-04-22T07:01:06.151Z,101296.19
2019-04-22T07:06:11.454Z,101302.02
2019-04-22T07:11:06.285Z,101311.78
2019-04-22T07:21:26.041Z,101311.91
2019-04-22T07:26:29.192Z,101318.40
2019-04-22T07:31:37.225Z,101306.06
2019-04-22T07:41:51.405Z,101301.98
2019-04-22T07:52:03.609Z,101297.66
2019-04-22T07:57:15.097Z,101298.16
2019-04-22T08:02:16.016Z,101297.84
2019-04-22T08:07:18.086Z,101294.35
2019-04-22T08:12:26.865Z,101291.78
2019-04-22T08:22:37.559Z,101284.08
2019-04-22T08:27:43.620Z,101288.58
2019-04-22T08:32:46.345Z,101289.47
2019-04-22T08:38:02.047Z,101280.49
2019-04-22T08:43:07.491Z,101286.20
2019-04-22T08:48:07.726Z,101283.08
2019-04-22T08:53:16.121Z,101282.41
2019-04-22T08:58:37.553Z,101284.34
2019-04-22T09:03:25.926Z,101292.03
2019-04-22T09:08:34.168Z,101293.94
2019-04-22T09:13:43.408Z,101282.67
2019-04-22T09:18:48.699Z,101282.16
2019-04-22T09:23:57.175Z,101282.36
2019-04-22T09:28:59.488Z,101276.95
2019-04-22T09:33:59.094Z,101279.45
2019-04-22T09:39:12.144Z,101267.30
2019-04-22T09:44:08.149Z,101269.81
2019-04-22T09:49:21.123Z,101264.68
2019-04-22T09:54:30.990Z,101250.76
2019-04-22T09:59:27.859Z,101256.97
2019-04-22T10:04:39.517Z,101248.92
2019-04-22T10:14:49.209Z,101245.00
2019-04-22T10:19:56.132Z,101248.16
2019-04-22T10:25:01.990Z,101229.01
2019-04-22T10:30:04.156Z,101208.64
2019-04-22T10:35:13.163Z,101202.20
2019-04-22T10:40:28.485Z,101202.89
2019-04-22T10:45:34.382Z,101192.60
2019-04-22T10:50:43.706Z,101189.69
2019-04-22T10:55:49.865Z,101190.66
2019-04-22T11:00:56.136Z,101187.86
2019-04-22T11:06:01.288Z,101188.22
2019-04-22T11:11:18.894Z,101174.76
2019-04-22T11:16:11.772Z,101169.08
2019-04-22T11:21:15.958Z,101163.53
2019-04-22T11:26:20.209Z,101169.20
2019-04-22T11:31:24.471Z,101171.72
2019-04-22T11:36:30.731Z,101160.92
2019-04-22T11:41:35.998Z,101160.33
2019-04-22T11:46:41.092Z,101153.06
2019-04-22T11:51:45.748Z,101161.28
2019-04-22T11:56:49.974Z,101148.02
2019-04-22T12:01:55.098Z,101150.14
2019-04-22T12:07:00.114Z,101142.61
2019-04-22T12:12:05.723Z,101129.96
2019-04-22T12:17:11.239Z,101130.77
2019-04-22T12:22:15.545Z,101122.35
2019-04-22T12:27:22.036Z,101116.05
2019-04-22T12:32:25.631Z,101111.52
2019-04-22T12:37:38.056Z,101113.37
2019-04-22T12:42:37.293Z,101096.40
2019-04-22T12:47:42.240Z,101090.32
2019-04-22T12:52:54.694Z,101087.64
2019-04-22T12:57:58.599Z,101077.95
2019-04-22T13:03:01.042Z,101079.31
2019-04-22T13:08:05.739Z,101066.72
2019-04-22T13:13:11.283Z,101064.09
2019-04-22T13:18:27.045Z,101050.06
2019-04-22T13:23:22.178Z,101055.08
2019-04-22T13:28:27.257Z,101045.60
2019-04-22T13:33:32.882Z,101039.61
2019-04-22T13:38:38.643Z,101040.66
2019-04-22T13:43:43.022Z,101037.19
2019-04-22T13:49:14.571Z,101032.12
2019-04-22T13:59:10.142Z,101031.45
2019-04-22T14:04:12.453Z,101047.83
2019-04-22T14:09:18.615Z,101041.28
2019-04-22T14:14:23.996Z,101037.70
2019-04-22T14:19:29.790Z,101032.42
2019-04-22T14:24:34.504Z,101040.08
2019-04-22T14:29:39.797Z,101031.78
2019-04-22T14:34:44.952Z,101026.73
2019-04-22T14:39:49.210Z,101015.67
2019-04-22T14:45:26.134Z,101026.54
2019-04-22T14:50:22.360Z,101028.97
2019-04-22T14:55:13.779Z,101022.72
2019-04-22T15:00:15.870Z,101030.16
2019-04-22T15:05:21.985Z,101015.38
2019-04-22T15:10:26.591Z,101023.16
2019-04-22T15:15:48.951Z,101012.63
2019-04-22T15:20:54.382Z,101010.70
2019-04-22T15:25:59.088Z,101018.05
2019-04-22T15:31:03.686Z,101003.47
2019-04-22T15:36:07.995Z,101006.67
2019-04-22T15:41:16.681Z,101021.15
2019-04-22T15:46:20.898Z,101005.95
2019-04-22T15:51:25.156Z,101014.30
2019-04-22T15:56:30.650Z,101008.44
2019-04-22T16:01:37.803Z,101013.77
2019-04-22T16:06:41.181Z,101016.78
2019-04-22T16:11:45.847Z,100994.91
2019-04-22T16:16:50.522Z,101014.50
2019-04-22T16:22:01.426Z,101003.50
2019-04-22T16:27:04.850Z,101015.12
2019-04-22T16:32:09.607Z,101013.49
2019-04-22T16:37:14.740Z,101014.88
2019-04-22T16:42:33.285Z,101009.21
2019-04-22T16:47:25.734Z,100998.08
2019-04-22T16:52:30.320Z,101007.05
2019-04-22T16:57:35.849Z,100996.77
2019-04-22T17:03:06.738Z,100992.47
2019-04-22T17:08:12.313Z,100993.80
2019-04-22T17:13:20.931Z,100997.83
2019-04-22T17:18:23.230Z,100996.22
2019-04-22T17:23:27.720Z,101003.22
2019-04-22T17:28:33.337Z,100999.40
2019-04-22T17:33:39.101Z,101000.66
2019-04-22T17:38:54.365Z,101004.11
2019-04-22T17:44:12.235Z,101009.80
2019-04-22T17:49:23.659Z,101007.03
2019-04-22T17:54:30.717Z,101005.58
2019-04-22T17:59:33.935Z,101005.34
2019-04-22T18:04:20.223Z,100976.20
2019-04-22T18:10:23.747Z,101006.52
2019-04-22T18:14:54.124Z,101010.78
2019-04-22T18:19:54.790Z,101006.89
2019-04-22T18:24:58.397Z,101009.80
2019-04-22T18:30:04.139Z,101007.55
2019-04-22T18:35:14.110Z,100999.09
2019-04-22T18:40:21.838Z,101002.73
2019-04-22T18:45:42.188Z,101003.56
2019-04-22T18:50:45.214Z,101007.52
2019-04-22T18:56:01.696Z,101004.92
2019-04-22T19:00:52.777Z,101002.63
2019-04-22T19:06:29.431Z,101008.20
2019-04-22T19:11:22.324Z,101004.36
2019-04-22T19:16:36.152Z,101001.31
2019-04-22T19:21:37.988Z,101002.80
2019-04-22T19:26:50.344Z,101006.25
2019-04-22T19:31:51.242Z,101003.47
2019-04-22T19:36:59.306Z,101006.11
2019-04-22T19:42:09.558Z,100997.89
2019-04-22T19:47:28.526Z,100998.05
2019-04-22T19:52:18.942Z,100991.16
2019-04-22T19:57:17.680Z,100992.91
2019-04-22T20:03:07.294Z,100991.80
2019-04-22T20:08:07.367Z,100984.42
2019-04-22T20:13:15.086Z,100971.18
2019-04-22T20:18:26.999Z,100978.30
2019-04-22T20:23:18.197Z,100978.95
2019-04-22T20:28:31.089Z,100974.59
2019-04-22T20:33:35.251Z,100964.52
2019-04-22T20:38:42.537Z,100965.52
2019-04-22T20:43:54.627Z,100964.95
2019-04-22T20:48:54.808Z,100966.86
2019-04-22T20:54:03.820Z,100965.00
2019-04-22T20:59:02.120Z,100959.27
2019-04-22T21:03:58.647Z,100950.92
2019-04-22T21:09:18.038Z,100956.55
2019-04-22T21:14:19.654Z,100956.02
2019-04-22T21:19:38.238Z,100950.31
2019-04-22T21:24:32.262Z,100955.65
2019-04-22T21:29:33.426Z,100952.10
2019-04-22T21:34:52.733Z,100951.73
2019-04-22T21:39:46.604Z,100946.48
2019-04-22T21:44:51.111Z,100945.37
2019-04-22T21:50:26.106Z,100949.60
2019-04-22T21:55:10.230Z,100945.41
2019-04-22T22:00:25.000Z,100936.41
2019-04-22T22:05:19.000Z,100935.85
2019-04-22T22:10:29.688Z,100935.80
2019-04-22T22:15:37.670Z,100936.77
2019-04-22T22:20:45.351Z,100928.99
2019-04-22T22:25:44.125Z,100932.98
2019-04-22T22:35:59.626Z,100929.53
2019-04-22T22:40:44.008Z,100927.59
2019-04-22T22:46:05.951Z,100927.33
2019-04-22T22:51:18.570Z,100919.33
2019-04-22T22:56:25.354Z,100919.78
2019-04-22T23:01:34.948Z,100912.76
2019-04-22T23:06:40.652Z,100908.05
2019-04-22T23:11:57.542Z,100910.65
2019-04-22T23:16:35.436Z,100906.55
2019-04-22T23:21:38.500Z,100904.53
2019-04-22T23:27:10.183Z,100902.86
2019-04-22T23:32:18.512Z,100894.67
2019-04-22T23:37:28.943Z,100893.00
2019-04-22T23:42:44.807Z,100890.73
2019-04-22T23:47:41.167Z,100885.27
2019-04-22T23:52:58.973Z,100883.55
2019-04-22T23:58:05.067Z,100878.95
